Aviation Digital Data Service (ADDS)

Output produced by TAFs form (0152 UTC 18 October 2017)
found at http://aviationweather.gov/adds/tafs/
 
KSJC 180053Z 29008KT 5SM HZ FEW014 SCT075 BKN120 24/05 A3003 RMK AO2 SLP169 T02390050
KSJC 172341Z 1800/1824 30008KT 5SM HZ FEW012 SCT080 BKN110 
     FM180300 VRB03KT 5SM HZ FEW012 SCT080 BKN110 
     FM180900 00000KT 5SM HZ SCT180 
     FM182100 31007KT 5SM HZ FEW180
       
KPAO 180147Z 32008KT 10SM FU SCT180 17/12 A3004
KE16 180135Z AUTO 33007KT 8SM -RA BKN020 23/00 A3005 RMK AO2
KHAF 180135Z AUTO 34009KT 4SM BR OVC003 10/10 A3006 RMK AO2
KRHV 180115Z 34005KT 6SM FU BKN100 25/03 A3007 RMK BIRD ACTIVITY
KCVH 180130Z AUTO 15004KT 10SM CLR 22/02 A3003 RMK A01